Time;durP1;ratioP1;P1;durP2;ratioP2;P2;SDS_P1;SDS_P2;PMS_P1;PMS_P2;Temp;Humidity;BMP_temperature;BMP_pressure;BME280_temperature;BME280_humidity;BME280_pressure;Samples;Min_cycle;Max_cycle;Signal;HPM_P1;HPM_P2
2023/05/02 00:01:22;;;;;;;37.38;26.38;;;12.60;73.60;;;;;;5049713;28;20044;-46
2023/05/02 00:03:48;;;;;;;39.08;28.58;;;12.60;74.00;;;;;;5049975;28;20037;-45
2023/05/02 00:06:15;;;;;;;43.45;28.90;;;12.60;74.30;;;;;;5048547;28;20041;-46
2023/05/02 00:08:42;;;;;;;37.90;27.52;;;12.70;74.60;;;;;;5049386;28;20160;-45
2023/05/02 00:11:14;;;;;;;38.78;28.23;;;12.70;75.40;;;;;;5049540;28;20045;-47
2023/05/02 00:13:54;;;;;;;41.55;29.17;;;12.80;75.10;;;;;;5049153;28;20569;-47
2023/05/02 00:16:23;;;;;;;38.90;27.75;;;12.90;75.20;;;;;;5047461;28;20052;-48
2023/05/02 00:18:52;;;;;;;40.33;27.83;;;12.90;75.30;;;;;;5049719;28;20405;-46
2023/05/02 00:21:23;;;;;;;37.63;28.77;;;13.00;75.50;;;;;;5048938;28;20090;-45
2023/05/02 00:23:52;;;;;;;41.72;30.15;;;13.10;75.60;;;;;;5048924;28;20044;-46
2023/05/02 00:26:20;;;;;;;43.40;30.33;;;13.20;75.70;;;;;;5047809;28;20095;-47
2023/05/02 00:28:49;;;;;;;40.63;30.13;;;13.20;75.50;;;;;;5049512;28;20063;-47
2023/05/02 00:31:15;;;;;;;41.05;29.55;;;13.30;75.40;;;;;;5029808;28;20060;-46
2023/05/02 00:33:42;;;;;;;41.65;30.73;;;13.40;75.40;;;;;;5048315;28;20048;-47
2023/05/02 00:36:18;;;;;;;39.75;29.20;;;13.40;75.30;;;;;;5049894;28;20843;-45
2023/05/02 00:38:52;;;;;;;39.90;28.83;;;13.50;75.60;;;;;;5033415;28;20045;-46
2023/05/02 00:41:19;;;;;;;41.70;29.48;;;13.50;75.80;;;;;;5023521;28;20045;-50
2023/05/02 00:43:46;;;;;;;40.13;28.90;;;13.60;75.20;;;;;;5048530;28;20039;-46
2023/05/02 00:46:14;;;;;;;42.97;29.83;;;13.60;75.00;;;;;;5024710;28;20620;-45
2023/05/02 00:48:44;;;;;;;40.97;29.50;;;13.70;75.10;;;;;;5049214;28;20128;-46
2023/05/02 00:51:15;;;;;;;40.53;29.02;;;13.70;75.10;;;;;;5046656;28;20064;-44
2023/05/02 00:53:42;;;;;;;42.40;28.38;;;13.80;75.10;;;;;;5030411;28;20064;-45
2023/05/02 00:56:10;;;;;;;38.47;27.40;;;13.80;74.70;;;;;;5046792;28;20055;-47
2023/05/02 00:58:40;;;;;;;38.28;25.30;;;13.80;74.80;;;;;;5049138;28;20048;-44
2023/05/02 01:01:34;;;;;;;36.50;26.38;;;13.90;74.70;;;;;;5048972;28;20055;-45
2023/05/02 01:04:24;;;;;;;38.47;25.67;;;13.90;75.30;;;;;;5028599;28;20124;-46
2023/05/02 01:07:13;;;;;;;38.50;26.20;;;13.90;74.40;;;;;;5043393;28;21028;-46
2023/05/02 01:09:58;;;;;;;34.55;23.83;;;14.00;74.80;;;;;;5040422;28;20052;-45
2023/05/02 01:12:57;;;;;;;34.40;23.88;;;14.00;74.90;;;;;;5048220;28;20511;-46
2023/05/02 01:15:32;;;;;;;34.20;23.33;;;14.00;75.10;;;;;;5047211;28;20108;-47
2023/05/02 01:18:00;;;;;;;37.97;25.67;;;14.00;74.40;;;;;;5023239;28;20057;-45
2023/05/02 01:20:30;;;;;;;37.05;24.73;;;14.10;74.30;;;;;;5048341;28;20462;-47
2023/05/02 01:23:06;;;;;;;36.15;24.60;;;14.10;74.20;;;;;;5048297;28;20045;-46
2023/05/02 01:25:48;;;;;;;37.38;25.30;;;14.10;74.40;;;;;;5046933;28;20045;-45
2023/05/02 01:28:27;;;;;;;35.72;24.35;;;14.10;74.50;;;;;;5046138;28;20052;-44
2023/05/02 01:31:01;;;;;;;34.67;24.05;;;14.10;74.80;;;;;;5027392;28;20111;-45
2023/05/02 01:33:35;;;;;;;33.10;22.80;;;14.20;74.40;;;;;;5021971;28;20398;-45
2023/05/02 01:36:02;;;;;;;36.60;23.98;;;14.20;74.60;;;;;;5032123;28;20102;-46
2023/05/02 01:38:35;;;;;;;35.70;23.23;;;14.20;74.50;;;;;;5033121;28;20062;-45
2023/05/02 01:41:06;;;;;;;;;;;14.30;74.80;;;;;;5029418;28;20434;-46
2023/05/02 01:43:36;;;;;;;30.35;21.42;;;14.30;75.00;;;;;;5045958;28;19928;-47
2023/05/02 01:46:08;;;;;;;34.22;23.48;;;14.30;74.00;;;;;;5025898;28;20048;-47
2023/05/02 01:48:35;;;;;;;31.23;22.77;;;14.30;74.20;;;;;;5044028;28;20039;-48
2023/05/02 01:51:04;;;;;;;32.85;22.92;;;14.40;74.20;;;;;;5028570;28;20099;-47
2023/05/02 01:53:35;;;;;;;33.42;23.17;;;14.40;74.30;;;;;;5032104;28;20551;-45
2023/05/02 01:56:07;;;;;;;31.20;21.17;;;14.40;74.40;;;;;;5056297;28;20096;-48
2023/05/02 01:58:41;;;;;;;32.85;21.00;;;14.40;74.40;;;;;;5043366;28;20036;-47
2023/05/02 02:01:09;;;;;;;34.78;22.42;;;14.40;74.40;;;;;;5060659;28;20067;-46
2023/05/02 02:03:36;;;;;;;29.27;20.27;;;14.50;75.10;;;;;;5029135;28;20092;-47
2023/05/02 02:06:04;;;;;;;32.00;21.92;;;14.40;74.40;;;;;;5052226;28;20079;-46
2023/05/02 02:08:35;;;;;;;29.02;20.75;;;14.40;74.50;;;;;;5032613;28;20614;-46
2023/05/02 02:11:08;;;;;;;27.77;20.70;;;14.50;74.40;;;;;;5047663;28;20712;-47
2023/05/02 02:13:39;;;;;;;30.63;19.48;;;14.50;74.60;;;;;;5069252;23;20071;-48
2023/05/02 02:16:11;;;;;;;28.55;20.45;;;14.50;74.40;;;;;;5046589;28;20049;-48
2023/05/02 02:18:38;;;;;;;27.08;18.98;;;14.50;74.50;;;;;;5032260;28;20048;-48
2023/05/02 02:21:10;;;;;;;30.05;18.70;;;14.50;74.30;;;;;;5030050;28;20390;-43
2023/05/02 02:23:46;;;;;;;25.13;16.23;;;14.60;74.40;;;;;;5021525;28;20044;-45
2023/05/02 02:26:13;;;;;;;21.85;15.35;;;14.50;73.60;;;;;;5011337;28;20521;-49
2023/05/02 02:28:43;;;;;;;23.73;16.23;;;14.50;73.50;;;;;;5026452;28;20445;-47
2023/05/02 02:31:09;;;;;;;21.58;14.48;;;14.50;73.40;;;;;;5013649;28;20057;-44
2023/05/02 02:33:37;;;;;;;21.80;14.85;;;14.50;73.10;;;;;;5013399;28;20049;-45
2023/05/02 02:36:24;;;;;;;23.40;14.77;;;14.50;72.90;;;;;;5016701;28;20099;-47
2023/05/02 02:39:03;;;;;;;18.67;12.85;;;14.50;73.00;;;;;;5032985;28;20041;-50
2023/05/02 02:41:42;;;;;;;20.10;12.50;;;14.50;72.80;;;;;;5031461;28;20742;-48
2023/05/02 02:44:44;;;;;;;16.13;11.23;;;14.40;72.40;;;;;;5032015;28;20412;-46
2023/05/02 02:47:20;;;;;;;15.70;10.73;;;14.50;72.50;;;;;;5030778;28;20050;-50
2023/05/02 02:50:18;;;;;;;14.63;10.23;;;14.40;72.10;;;;;;5030243;28;20059;-45
2023/05/02 02:52:56;;;;;;;16.10;10.75;;;14.40;72.40;;;;;;5008721;28;20673;-45
2023/05/02 02:55:28;;;;;;;15.73;11.57;;;14.30;72.30;;;;;;5005576;28;20045;-48
2023/05/02 02:58:16;;;;;;;15.25;11.38;;;14.30;72.60;;;;;;5032194;28;20081;-45
2023/05/02 03:00:52;;;;;;;19.17;11.05;;;14.30;72.50;;;;;;5007403;28;20057;-47
2023/05/02 03:03:21;;;;;;;16.42;10.95;;;14.30;72.10;;;;;;5019241;28;20054;-47
2023/05/02 03:05:50;;;;;;;15.65;11.85;;;14.20;72.00;;;;;;4993937;28;20422;-48
2023/05/02 03:08:17;;;;;;;19.05;12.00;;;14.20;71.90;;;;;;5011710;28;20046;-49
2023/05/02 03:10:45;;;;;;;17.17;11.30;;;14.20;72.00;;;;;;5031414;28;20053;-46
2023/05/02 03:13:12;;;;;;;17.38;10.43;;;14.20;72.00;;;;;;5009708;28;20099;-46
2023/05/02 03:15:41;;;;;;;17.15;11.68;;;14.20;71.90;;;;;;5012233;28;20091;-48
2023/05/02 03:18:10;;;;;;;16.77;12.23;;;14.20;72.00;;;;;;5013134;28;20049;-49
2023/05/02 03:20:41;;;;;;;16.70;11.02;;;14.20;71.80;;;;;;5023157;28;20096;-49
2023/05/02 03:23:08;;;;;;;16.65;12.10;;;14.10;71.80;;;;;;5014559;28;20053;-48
2023/05/02 03:25:38;;;;;;;16.58;11.57;;;14.10;72.00;;;;;;5030139;28;20068;-49
2023/05/02 03:28:09;;;;;;;16.20;11.07;;;14.10;72.10;;;;;;5026026;28;20049;-48
2023/05/02 03:30:39;;;;;;;16.15;11.02;;;14.10;72.10;;;;;;5013059;28;20403;-48
2023/05/02 03:33:07;;;;;;;16.35;11.50;;;14.10;72.40;;;;;;5014942;28;20506;-50
2023/05/02 03:35:44;;;;;;;17.35;11.55;;;14.10;72.20;;;;;;5005791;28;20595;-49
2023/05/02 03:38:13;;;;;;;15.65;10.15;;;14.10;72.40;;;;;;5031499;28;20045;-47
2023/05/02 03:40:45;;;;;;;;;;;14.10;72.00;;;;;;5013449;28;20037;-49
2023/05/02 03:43:14;;;;;;;14.82;11.07;;;14.20;72.00;;;;;;5031174;28;20352;-46
2023/05/02 03:45:41;;;;;;;16.38;11.27;;;14.10;71.60;;;;;;5029325;28;20703;-50
2023/05/02 03:48:09;;;;;;;16.98;10.82;;;14.10;71.60;;;;;;5012631;28;20665;-46
2023/05/02 03:50:37;;;;;;;16.23;11.05;;;14.10;71.60;;;;;;5013222;28;20484;-49
2023/05/02 03:53:08;;;;;;;17.02;12.65;;;14.10;71.80;;;;;;5032689;28;20494;-45
2023/05/02 03:55:50;;;;;;;15.75;11.48;;;14.10;71.70;;;;;;5008598;28;20045;-45
2023/05/02 03:58:27;;;;;;;17.63;11.52;;;14.10;71.70;;;;;;5013824;28;20049;-49
2023/05/02 04:00:58;;;;;;;15.87;11.73;;;14.10;71.80;;;;;;5013537;28;20849;-44
2023/05/02 04:03:27;;;;;;;17.15;11.45;;;14.10;71.70;;;;;;5014393;28;20045;-50
2023/05/02 04:05:59;;;;;;;15.05;10.88;;;14.10;71.80;;;;;;5006955;28;20047;-46
2023/05/02 04:08:25;;;;;;;15.73;10.73;;;14.10;71.80;;;;;;5030467;28;20037;-45
2023/05/02 04:10:52;;;;;;;15.13;10.70;;;14.10;71.60;;;;;;5011984;28;20049;-49
2023/05/02 04:13:21;;;;;;;17.08;11.52;;;14.10;71.60;;;;;;5009486;28;20050;-48
2023/05/02 04:15:50;;;;;;;18.02;12.75;;;14.10;71.80;;;;;;5010379;28;20111;-44
2023/05/02 04:18:25;;;;;;;17.38;12.00;;;14.10;71.80;;;;;;5011037;28;20038;-46
2023/05/02 04:20:52;;;;;;;18.30;12.52;;;14.20;71.80;;;;;;5012550;28;20045;-48
2023/05/02 04:23:22;;;;;;;17.63;11.95;;;14.10;71.80;;;;;;5010785;28;20413;-47
2023/05/02 04:25:55;;;;;;;20.43;13.87;;;14.10;71.80;;;;;;5006943;28;20041;-47
2023/05/02 04:28:31;;;;;;;17.10;12.85;;;14.10;71.60;;;;;;5012069;28;20515;-46
2023/05/02 04:30:59;;;;;;;19.77;13.38;;;14.10;71.60;;;;;;5009828;28;20037;-45
2023/05/02 04:33:26;;;;;;;17.23;11.55;;;14.10;71.60;;;;;;5030796;28;20116;-45
2023/05/02 04:36:00;;;;;;;18.48;11.63;;;14.10;71.80;;;;;;5009657;28;20057;-43
2023/05/02 04:38:27;;;;;;;17.42;11.82;;;14.10;71.90;;;;;;5011250;28;20061;-44
2023/05/02 04:40:53;;;;;;;18.50;12.02;;;14.10;71.90;;;;;;5010113;28;20527;-45
2023/05/02 04:43:34;;;;;;;16.50;11.80;;;14.00;72.00;;;;;;5006852;28;20057;-47
2023/05/02 04:46:02;;;;;;;15.25;11.07;;;14.10;71.90;;;;;;5008383;28;20760;-43
2023/05/02 04:48:44;;;;;;;17.63;10.95;;;14.00;72.10;;;;;;5008518;28;20103;-46
2023/05/02 04:51:15;;;;;;;15.88;10.68;;;14.00;72.30;;;;;;5009069;28;20057;-45
2023/05/02 04:53:45;;;;;;;15.60;10.75;;;14.10;72.30;;;;;;5029634;28;20044;-45
2023/05/02 04:56:13;;;;;;;14.00;9.90;;;14.00;72.20;;;;;;5012040;28;20493;-45
2023/05/02 04:58:44;;;;;;;17.52;11.60;;;14.00;72.30;;;;;;5030579;28;20042;-45
2023/05/02 05:01:15;;;;;;;16.77;10.63;;;14.00;72.40;;;;;;5012532;28;20045;-45
2023/05/02 05:03:45;;;;;;;15.15;10.68;;;14.10;72.60;;;;;;5008774;28;20103;-45
2023/05/02 05:06:18;;;;;;;12.85;9.98;;;14.00;72.70;;;;;;5012133;28;20145;-46
2023/05/02 05:08:51;;;;;;;15.60;11.07;;;14.00;73.40;;;;;;5004653;28;20041;-45
2023/05/02 05:11:18;;;;;;;15.40;10.27;;;14.00;72.90;;;;;;5009272;28;20045;-47
2023/05/02 05:13:45;;;;;;;13.98;9.90;;;14.00;72.80;;;;;;5010492;28;20053;-46
2023/05/02 05:16:13;;;;;;;18.00;11.45;;;14.00;73.00;;;;;;5008070;28;20041;-44
2023/05/02 05:18:43;;;;;;;15.15;10.75;;;14.00;73.10;;;;;;5009605;28;20579;-46
2023/05/02 05:21:15;;;;;;;16.73;10.65;;;14.00;73.30;;;;;;5011501;28;20076;-47
2023/05/02 05:23:48;;;;;;;15.35;11.07;;;14.00;73.40;;;;;;5027568;28;20080;-45
2023/05/02 05:26:23;;;;;;;17.73;11.82;;;14.10;73.50;;;;;;5010765;28;20045;-43
2023/05/02 05:28:51;;;;;;;13.15;11.10;;;14.00;73.20;;;;;;5004396;28;20053;-46
2023/05/02 05:31:28;;;;;;;14.38;10.45;;;14.00;73.40;;;;;;5011874;28;20045;-45
2023/05/02 05:33:59;;;;;;;16.92;10.75;;;14.10;73.40;;;;;;5012476;28;20058;-46
2023/05/02 05:36:30;;;;;;;13.45;10.55;;;14.10;73.60;;;;;;5025725;28;20187;-47
2023/05/02 05:39:00;;;;;;;15.48;11.30;;;14.10;73.40;;;;;;5028667;28;20053;-46
2023/05/02 05:41:33;;;;;;;12.65;10.27;;;14.10;73.50;;;;;;5011148;28;20156;-47
2023/05/02 05:44:03;;;;;;;12.85;9.38;;;14.10;73.50;;;;;;5010057;28;20045;-44
2023/05/02 05:46:32;;;;;;;13.77;9.10;;;14.20;73.30;;;;;;5027055;28;20450;-46
2023/05/02 05:49:00;;;;;;;13.27;9.00;;;14.20;73.20;;;;;;5012322;28;20053;-49
2023/05/02 05:51:28;;;;;;;12.40;9.45;;;14.20;73.10;;;;;;5008864;28;20136;-45
2023/05/02 05:53:58;;;;;;;10.50;7.88;;;14.20;73.10;;;;;;5008335;28;20059;-46
2023/05/02 05:56:25;;;;;;;11.80;8.07;;;14.20;73.20;;;;;;5010178;28;20057;-51
2023/05/02 05:59:04;;;;;;;7.43;5.53;;;14.20;73.00;;;;;;5011095;28;20046;-48
2023/05/02 06:01:34;;;;;;;6.63;4.45;;;14.20;72.40;;;;;;5009998;28;20053;-47
2023/05/02 06:04:07;;;;;;;6.90;3.85;;;14.10;71.60;;;;;;5008362;28;20042;-44
2023/05/02 06:06:41;;;;;;;5.35;3.58;;;14.10;71.00;;;;;;5028740;28;20146;-45
2023/05/02 06:09:11;;;;;;;5.50;3.55;;;14.10;71.30;;;;;;5027931;28;20133;-44
2023/05/02 06:11:41;;;;;;;5.10;2.60;;;14.00;70.90;;;;;;5007051;28;20050;-49
2023/05/02 06:14:09;;;;;;;5.35;3.60;;;13.90;71.00;;;;;;5010899;28;20825;-44
2023/05/02 06:16:36;;;;;;;8.15;3.15;;;13.90;70.90;;;;;;5006129;28;20040;-45
2023/05/02 06:19:05;;;;;;;4.65;2.65;;;13.90;70.70;;;;;;5010797;28;20052;-46
2023/05/02 06:21:31;;;;;;;4.78;2.30;;;13.90;70.80;;;;;;5010793;28;20037;-50
2023/05/02 06:24:01;;;;;;;5.30;1.90;;;13.90;70.70;;;;;;5028462;28;20065;-50
2023/05/02 06:26:27;;;;;;;5.65;2.58;;;13.90;70.40;;;;;;5026954;28;20045;-50
2023/05/02 06:28:56;;;;;;;3.63;1.98;;;13.90;70.10;;;;;;5028985;28;20120;-47
2023/05/02 06:31:23;;;;;;;3.10;2.08;;;13.90;70.10;;;;;;5038587;28;20520;-47
2023/05/02 06:33:51;;;;;;;4.82;2.63;;;13.90;70.10;;;;;;5027493;28;20036;-46
2023/05/02 06:36:17;;;;;;;5.63;2.60;;;13.90;70.20;;;;;;5033276;28;20401;-49
2023/05/02 06:38:47;;;;;;;4.15;1.80;;;14.00;70.40;;;;;;5032711;28;20048;-45
2023/05/02 06:41:15;;;;;;;5.35;1.70;;;14.00;69.70;;;;;;5033413;28;20046;-49
2023/05/02 06:43:46;;;;;;;4.32;2.35;;;14.00;69.60;;;;;;5031883;28;20068;-50
2023/05/02 06:46:17;;;;;;;5.63;1.85;;;14.10;69.60;;;;;;5012655;28;20077;-49
2023/05/02 06:48:47;;;;;;;5.03;2.58;;;14.10;69.70;;;;;;5032478;28;20038;-45
2023/05/02 06:51:14;;;;;;;3.65;1.75;;;14.20;69.20;;;;;;5033973;28;20057;-49
2023/05/02 06:53:46;;;;;;;6.05;1.90;;;14.30;69.00;;;;;;5031650;28;20052;-49
2023/05/02 06:56:14;;;;;;;3.85;1.98;;;14.30;68.90;;;;;;5030278;28;20045;-49
2023/05/02 06:58:45;;;;;;;4.20;2.15;;;14.40;68.60;;;;;;5031675;28;20059;-49
2023/05/02 07:01:13;;;;;;;4.28;2.42;;;14.50;68.10;;;;;;5032015;28;20060;-48
2023/05/02 07:03:40;;;;;;;4.60;1.90;;;14.50;68.10;;;;;;5030912;28;20052;-49
2023/05/02 07:06:14;;;;;;;;;;;14.60;67.50;;;;;;5032821;28;20075;-49
2023/05/02 07:08:41;;;;;;;4.45;1.80;;;14.70;68.40;;;;;;5031919;28;19967;-49
2023/05/02 07:11:15;;;;;;;3.65;2.03;;;14.70;66.80;;;;;;5032445;28;20049;-46
2023/05/02 07:13:43;;;;;;;4.05;1.80;;;14.70;66.40;;;;;;5031491;28;20088;-48
2023/05/02 07:16:09;;;;;;;3.67;1.75;;;14.80;66.40;;;;;;5031310;28;20052;-45
2023/05/02 07:18:41;;;;;;;4.25;1.63;;;14.80;66.00;;;;;;5031540;28;20041;-50
2023/05/02 07:21:07;;;;;;;5.00;1.95;;;14.80;66.00;;;;;;5033420;28;20049;-46
2023/05/02 07:23:39;;;;;;;2.85;2.03;;;14.80;65.80;;;;;;5034031;28;20051;-51
2023/05/02 07:26:06;;;;;;;5.60;2.25;;;14.80;65.70;;;;;;5030675;28;20041;-50
2023/05/02 07:28:33;;;;;;;2.95;1.67;;;14.80;65.60;;;;;;5031365;28;20050;-50
2023/05/02 07:31:02;;;;;;;5.30;2.45;;;14.80;65.70;;;;;;5033323;28;20533;-50
2023/05/02 07:33:28;;;;;;;4.75;2.10;;;14.80;65.70;;;;;;5030664;28;20053;-50
2023/05/02 07:35:55;;;;;;;5.22;2.60;;;14.90;66.00;;;;;;5031094;28;20053;-49
2023/05/02 07:38:26;;;;;;;5.15;2.35;;;14.90;65.90;;;;;;5029715;28;20060;-50
2023/05/02 07:40:57;;;;;;;4.90;2.55;;;14.90;65.70;;;;;;5023494;28;20049;-49
2023/05/02 07:43:24;;;;;;;4.22;2.00;;;15.00;65.80;;;;;;5033108;28;20099;-46
2023/05/02 07:45:50;;;;;;;4.15;2.30;;;15.00;65.20;;;;;;5030371;28;20664;-49
2023/05/02 07:48:21;;;;;;;4.85;2.42;;;15.10;65.50;;;;;;5031030;28;20053;-48
2023/05/02 07:50:48;;;;;;;4.50;2.70;;;15.10;65.50;;;;;;5031988;28;20037;-49
2023/05/02 07:53:14;;;;;;;4.53;1.90;;;15.10;65.40;;;;;;5031249;28;20501;-47
2023/05/02 07:55:41;;;;;;;3.50;2.53;;;15.20;65.70;;;;;;5029715;28;20045;-49
2023/05/02 07:58:07;;;;;;;5.68;2.45;;;15.20;65.20;;;;;;5031149;28;20052;-48
2023/05/02 08:00:36;;;;;;;3.97;2.63;;;15.30;64.70;;;;;;5032282;28;20052;-50
2023/05/02 08:03:03;;;;;;;3.67;2.30;;;15.30;64.80;;;;;;5031088;28;20750;-49
2023/05/02 08:05:31;;;;;;;3.50;2.33;;;15.30;65.00;;;;;;5030403;28;20107;-50
2023/05/02 08:07:58;;;;;;;5.80;2.45;;;15.30;64.60;;;;;;5030919;28;20055;-49
2023/05/02 08:10:25;;;;;;;4.05;2.42;;;15.30;64.20;;;;;;5032076;28;20049;-49
2023/05/02 08:12:51;;;;;;;3.67;2.17;;;15.30;64.20;;;;;;5029232;28;20041;-49
2023/05/02 08:15:27;;;;;;;5.75;3.22;;;15.30;63.90;;;;;;5026479;28;20128;-46
2023/05/02 08:17:53;;;;;;;4.53;2.20;;;15.40;63.80;;;;;;5030012;28;20124;-45
2023/05/02 08:20:22;;;;;;;3.63;2.58;;;15.40;64.10;;;;;;5030190;28;20045;-45
2023/05/02 08:22:52;;;;;;;7.20;2.75;;;15.40;64.20;;;;;;5059676;23;20076;-43
2023/05/02 08:25:19;;;;;;;6.75;3.20;;;15.50;64.50;;;;;;5049963;28;20044;-43
2023/05/02 08:27:51;;;;;;;5.20;2.40;;;15.60;64.10;;;;;;5046990;28;20759;-44
2023/05/02 08:30:20;;;;;;;4.80;2.35;;;15.60;63.80;;;;;;5031616;28;20096;-41
2023/05/02 08:32:56;;;;;;;5.55;2.95;;;15.60;63.60;;;;;;5029252;28;20067;-44
2023/05/02 08:35:30;;;;;;;5.60;2.33;;;15.70;63.10;;;;;;5028804;28;20521;-45
2023/05/02 08:37:59;;;;;;;4.80;1.80;;;15.70;62.60;;;;;;5024794;28;20041;-47
2023/05/02 08:40:37;;;;;;;6.00;2.00;;;15.70;62.40;;;;;;5030189;28;20064;-46
2023/05/02 08:43:11;;;;;;;5.85;1.75;;;15.70;62.00;;;;;;5029870;28;20041;-45
2023/05/02 08:45:46;;;;;;;4.63;1.85;;;15.60;61.70;;;;;;5026958;28;20063;-46
2023/05/02 08:48:16;;;;;;;7.50;2.58;;;15.60;61.40;;;;;;5030128;28;20064;-45
2023/05/02 08:50:47;;;;;;;6.50;2.38;;;15.40;61.80;;;;;;5030874;28;20049;-48
2023/05/02 08:53:13;;;;;;;5.72;2.45;;;15.40;62.20;;;;;;5028661;28;20536;-43
2023/05/02 08:55:42;;;;;;;5.68;1.90;;;15.30;61.70;;;;;;5027598;28;20510;-45
2023/05/02 08:58:10;;;;;;;5.20;1.98;;;15.20;61.30;;;;;;5029415;28;20520;-47
2023/05/02 09:00:41;;;;;;;4.43;1.83;;;15.20;61.80;;;;;;5030580;28;20041;-49
2023/05/02 09:03:32;;;;;;;5.75;2.53;;;15.10;61.30;;;;;;5029607;28;20042;-48
2023/05/02 09:06:11;;;;;;;4.00;2.65;;;15.10;60.70;;;;;;5029195;28;20093;-47
2023/05/02 09:08:44;;;;;;;6.00;2.30;;;15.00;60.70;;;;;;5028023;28;20052;-46
2023/05/02 09:11:16;;;;;;;3.28;1.73;;;15.00;60.90;;;;;;5030918;28;20435;-49
2023/05/02 09:13:48;;;;;;;4.63;2.13;;;15.00;60.40;;;;;;5028441;28;20054;-50
2023/05/02 09:16:26;;;;;;;7.50;2.67;;;14.90;59.80;;;;;;5026122;28;20405;-49
2023/05/02 09:18:55;;;;;;;4.60;2.00;;;14.90;60.10;;;;;;5029403;28;20037;-48
2023/05/02 09:21:36;;;;;;;5.28;2.05;;;14.90;60.40;;;;;;5031273;28;20068;-47
2023/05/02 09:24:15;;;;;;;5.55;2.80;;;14.80;59.60;;;;;;5026816;28;20046;-46
2023/05/02 09:26:58;;;;;;;7.32;2.80;;;14.80;59.80;;;;;;5029098;28;20044;-47
2023/05/02 09:29:29;;;;;;;3.42;1.55;;;14.80;59.10;;;;;;5029682;28;20045;-46
2023/05/02 09:31:59;;;;;;;3.75;1.70;;;14.80;59.20;;;;;;5021051;28;20041;-50
2023/05/02 09:34:25;;;;;;;4.90;1.67;;;14.80;59.50;;;;;;5027987;28;20433;-46
2023/05/02 09:36:56;;;;;;;2.85;1.48;;;14.90;59.30;;;;;;5028782;28;20045;-47
2023/05/02 09:39:25;;;;;;;4.88;1.67;;;14.90;59.60;;;;;;5027882;28;20052;-47
2023/05/02 09:41:56;;;;;;;4.28;1.90;;;15.00;59.50;;;;;;5029264;28;20041;-48
2023/05/02 09:44:38;;;;;;;3.80;1.90;;;15.00;58.90;;;;;;5028078;28;20044;-48
2023/05/02 09:47:07;;;;;;;6.88;2.78;;;15.10;58.50;;;;;;5027993;28;20120;-47
2023/05/02 09:49:43;;;;;;;3.20;2.00;;;15.20;59.00;;;;;;5009699;28;20044;-45
2023/05/02 09:52:22;;;;;;;5.57;2.55;;;15.20;59.10;;;;;;5030060;28;20045;-46
2023/05/02 09:54:55;;;;;;;5.85;2.33;;;15.30;59.10;;;;;;5028161;28;20044;-49
2023/05/02 09:57:40;;;;;;;4.25;2.40;;;15.40;58.80;;;;;;5028877;28;20048;-50
2023/05/02 10:00:51;;;;;;;7.68;2.22;;;15.60;58.20;;;;;;5030129;28;20523;-46
2023/05/02 10:03:23;;;;;;;5.85;2.05;;;15.70;57.80;;;;;;5027413;28;20057;-45
2023/05/02 10:05:57;;;;;;;4.97;1.63;;;15.80;58.60;;;;;;5027949;28;20091;-46
2023/05/02 10:08:27;;;;;;;4.85;2.10;;;15.90;57.50;;;;;;5013539;28;20529;-46
2023/05/02 10:10:59;;;;;;;4.85;1.98;;;16.00;57.20;;;;;;5034672;28;20528;-45
2023/05/02 10:13:30;;;;;;;5.37;2.37;;;16.10;56.60;;;;;;5031968;28;20517;-44
2023/05/02 10:16:00;;;;;;;4.72;2.90;;;16.20;56.80;;;;;;5032164;28;20057;-48
2023/05/02 10:18:41;;;;;;;7.68;3.05;;;16.40;57.20;;;;;;5032918;28;20037;-44
2023/05/02 10:21:19;;;;;;;5.63;3.08;;;16.50;55.40;;;;;;5034226;28;20525;-48
2023/05/02 10:23:52;;;;;;;5.25;2.28;;;16.60;55.30;;;;;;5032110;28;20064;-46
2023/05/02 10:26:22;;;;;;;6.13;2.92;;;16.70;56.20;;;;;;5031627;28;20095;-47
2023/05/02 10:28:55;;;;;;;3.90;2.70;;;16.80;54.60;;;;;;5032751;28;20502;-45
2023/05/02 10:31:21;;;;;;;5.00;2.10;;;16.90;55.30;;;;;;5033678;28;20048;-46
2023/05/02 10:33:53;;;;;;;4.97;2.30;;;16.90;55.10;;;;;;5032564;28;20120;-47
2023/05/02 10:36:21;;;;;;;4.47;2.13;;;17.00;53.70;;;;;;5032103;28;20053;-47
2023/05/02 10:38:51;;;;;;;3.83;2.17;;;17.00;53.70;;;;;;5032358;28;20061;-45
2023/05/02 10:41:25;;;;;;;7.22;3.03;;;17.00;53.10;;;;;;5032980;28;20287;-47
2023/05/02 10:43:52;;;;;;;6.05;2.83;;;17.00;52.30;;;;;;5035981;28;20037;-46
2023/05/02 10:46:32;;;;;;;5.88;2.58;;;17.00;53.40;;;;;;5029594;28;20038;-46
2023/05/02 10:49:03;;;;;;;3.40;2.03;;;17.00;51.90;;;;;;5032549;28;20608;-47
2023/05/02 10:51:33;;;;;;;13.98;3.53;;;17.00;52.40;;;;;;5033765;28;20044;-48
2023/05/02 10:54:22;;;;;;;4.53;2.28;;;17.10;53.30;;;;;;5032041;28;20087;-44
2023/05/02 10:57:04;;;;;;;4.00;2.45;;;17.10;53.90;;;;;;5029513;28;20052;-46
2023/05/02 10:59:32;;;;;;;;;;;17.20;51.80;;;;;;5033046;28;20037;-47
2023/05/02 11:02:01;;;;;;;4.10;1.90;;;17.30;54.10;;;;;;5032609;28;20032;-45
2023/05/02 11:05:02;;;;;;;8.48;3.22;;;17.30;53.50;;;;;;5031746;28;20080;-46
2023/05/02 11:07:32;;;;;;;6.10;2.28;;;17.30;51.40;;;;;;5027348;28;20490;-47
2023/05/02 11:10:17;;;;;;;3.45;2.13;;;17.30;51.70;;;;;;5032388;28;20041;-45
2023/05/02 11:12:48;;;;;;;5.97;2.40;;;17.30;51.70;;;;;;5031267;28;20044;-46
2023/05/02 11:15:29;;;;;;;5.85;3.65;;;17.40;52.70;;;;;;5031078;28;20040;-46
2023/05/02 11:18:11;;;;;;;4.43;2.63;;;17.40;52.60;;;;;;5030731;28;20104;-46
2023/05/02 11:20:42;;;;;;;6.18;2.40;;;17.50;53.10;;;;;;5030895;28;20049;-47
2023/05/02 11:23:12;;;;;;;5.75;2.72;;;17.50;52.30;;;;;;5024218;28;20528;-47
2023/05/02 11:25:42;;;;;;;6.25;2.47;;;17.70;52.40;;;;;;5030936;28;20041;-45
2023/05/02 11:28:39;;;;;;;5.35;2.50;;;17.70;51.90;;;;;;5031327;28;20124;-50
2023/05/02 11:31:10;;;;;;;7.47;2.63;;;17.80;51.00;;;;;;5024993;28;20076;-44
2023/05/02 11:33:38;;;;;;;5.97;2.38;;;17.80;51.70;;;;;;5030825;28;20405;-46
2023/05/02 11:36:09;;;;;;;4.22;2.88;;;17.90;51.10;;;;;;5028451;28;20048;-48
2023/05/02 11:38:37;;;;;;;3.50;2.05;;;17.90;51.10;;;;;;5035073;28;20041;-45
2023/05/02 11:41:09;;;;;;;4.80;2.42;;;17.90;50.80;;;;;;5020340;28;20057;-46
2023/05/02 11:43:39;;;;;;;5.63;2.38;;;18.00;51.30;;;;;;5031722;28;20041;-45
2023/05/02 11:46:06;;;;;;;3.50;1.90;;;18.00;50.90;;;;;;5029541;28;20038;-47
2023/05/02 11:48:33;;;;;;;6.07;2.45;;;18.00;50.90;;;;;;5026340;28;20041;-46
2023/05/02 11:51:06;;;;;;;3.97;2.70;;;18.10;50.90;;;;;;5032499;28;20050;-45
2023/05/02 11:53:42;;;;;;;5.97;2.50;;;18.20;50.10;;;;;;5011240;28;20057;-46
2023/05/02 11:56:11;;;;;;;5.75;2.33;;;18.30;50.40;;;;;;5023860;28;20124;-46
2023/05/02 11:58:39;;;;;;;6.13;2.45;;;18.30;50.30;;;;;;5030078;28;20041;-45
2023/05/02 12:01:16;;;;;;;4.20;1.95;;;18.40;49.50;;;;;;5031792;28;20087;-44
2023/05/02 12:03:46;;;;;;;8.43;2.50;;;18.40;49.60;;;;;;5030954;28;20033;-47
2023/05/02 12:06:19;;;;;;;4.20;2.42;;;18.50;49.90;;;;;;5031274;28;20037;-47
2023/05/02 12:08:47;;;;;;;4.32;2.30;;;18.50;49.20;;;;;;5029354;28;20050;-47
2023/05/02 12:11:22;;;;;;;3.65;2.10;;;18.50;48.80;;;;;;5031513;28;20045;-48
2023/05/02 12:13:51;;;;;;;6.05;2.35;;;18.60;47.90;;;;;;5030781;28;20519;-47
2023/05/02 12:16:19;;;;;;;3.53;2.20;;;18.60;49.40;;;;;;5030003;28;20042;-44
2023/05/02 12:18:49;;;;;;;6.10;2.33;;;18.60;48.60;;;;;;5012091;28;20045;-46
2023/05/02 12:21:18;;;;;;;4.28;2.10;;;18.50;49.20;;;;;;5030464;28;20045;-46
2023/05/02 12:23:48;;;;;;;4.25;2.47;;;18.60;48.50;;;;;;5029144;28;20505;-45
2023/05/02 12:26:24;;;;;;;6.30;2.45;;;18.60;48.50;;;;;;5028543;28;20041;-46
2023/05/02 12:28:54;;;;;;;4.53;2.33;;;18.70;48.20;;;;;;5027006;28;20116;-45
2023/05/02 12:31:26;;;;;;;6.10;2.30;;;18.70;48.10;;;;;;5029133;28;20052;-44
2023/05/02 12:33:56;;;;;;;5.45;2.47;;;18.80;47.50;;;;;;5028291;28;20041;-45
2023/05/02 12:36:29;;;;;;;5.90;2.20;;;18.90;47.60;;;;;;5028133;28;20061;-46
2023/05/02 12:38:58;;;;;;;4.15;2.28;;;18.90;47.00;;;;;;5034241;28;20041;-45
2023/05/02 12:41:35;;;;;;;3.97;2.10;;;19.00;46.70;;;;;;5029730;28;20144;-45
2023/05/02 12:44:06;;;;;;;5.55;2.05;;;19.00;46.50;;;;;;5030351;28;20521;-46
2023/05/02 12:46:35;;;;;;;4.57;2.30;;;19.00;46.20;;;;;;5026845;28;20505;-47
2023/05/02 12:49:08;;;;;;;5.35;3.03;;;18.90;46.30;;;;;;5028789;28;20103;-45
2023/05/02 12:51:41;;;;;;;4.65;2.67;;;18.90;46.00;;;;;;5028745;28;20072;-45
2023/05/02 12:54:19;;;;;;;4.93;2.35;;;18.90;46.30;;;;;;5027557;28;20038;-46
2023/05/02 12:56:50;;;;;;;3.60;2.63;;;18.90;45.20;;;;;;5025550;28;20095;-45
2023/05/02 12:59:30;;;;;;;4.60;2.60;;;19.00;46.90;;;;;;5029028;28;20096;-46
2023/05/02 13:01:58;;;;;;;3.75;2.35;;;19.10;47.40;;;;;;5029199;28;20097;-44